createdAt,value
2016-11-17T00:00:18.435Z,18.35
2016-11-17T00:00:50.763Z,18.26
2016-11-17T00:01:23.086Z,18.44
2016-11-17T00:01:55.395Z,18.41
2016-11-17T00:02:27.699Z,18.34
2016-11-17T00:03:00.014Z,18.36
2016-11-17T00:03:32.322Z,18.26
2016-11-17T00:04:04.636Z,18.32
2016-11-17T00:04:36.959Z,18.24
2016-11-17T00:05:09.284Z,18.39
2016-11-17T00:05:41.632Z,18.35
2016-11-17T00:06:13.948Z,18.41
2016-11-17T00:06:46.275Z,18.26
2016-11-17T00:07:18.604Z,18.42
2016-11-17T00:07:50.928Z,18.34
2016-11-17T00:08:23.284Z,18.39
2016-11-17T00:08:55.611Z,18.36
2016-11-17T00:09:27.903Z,18.38
2016-11-17T00:10:00.213Z,18.32
2016-11-17T00:10:32.527Z,18.35
2016-11-17T00:11:04.855Z,18.24
2016-11-17T00:11:37.197Z,18.32
2016-11-17T00:12:09.521Z,18.32
2016-11-17T00:12:41.840Z,18.32
2016-11-17T00:13:14.149Z,18.31
2016-11-17T00:13:46.471Z,18.24
2016-11-17T00:14:18.777Z,18.38
2016-11-17T00:14:51.094Z,18.44
2016-11-17T00:15:23.404Z,18.26
2016-11-17T00:15:55.725Z,18.32
2016-11-17T00:16:28.051Z,18.38
2016-11-17T00:17:00.372Z,18.42
2016-11-17T00:17:32.694Z,18.32
2016-11-17T00:18:05.016Z,18.35
2016-11-17T00:18:37.342Z,18.34
2016-11-17T00:19:09.668Z,18.34
2016-11-17T00:19:41.986Z,18.34
2016-11-17T00:20:14.304Z,18.35
2016-11-17T00:20:46.614Z,18.29
2016-11-17T00:21:18.942Z,18.36
2016-11-17T00:21:51.270Z,18.32
2016-11-17T00:22:23.599Z,18.36
2016-11-17T00:22:55.919Z,18.38
2016-11-17T00:23:28.255Z,18.32
2016-11-17T00:24:00.562Z,18.35
2016-11-17T00:24:32.872Z,18.29
2016-11-17T00:25:05.195Z,18.35
2016-11-17T00:25:37.528Z,18.34
2016-11-17T00:26:09.855Z,18.34
2016-11-17T00:26:42.169Z,18.38
2016-11-17T00:27:14.493Z,18.34
2016-11-17T00:27:46.811Z,18.38
2016-11-17T00:28:19.118Z,18.38
2016-11-17T00:28:51.452Z,18.31
2016-11-17T00:29:23.783Z,18.38
2016-11-17T00:29:56.105Z,18.24
2016-11-17T00:30:28.418Z,18.31
2016-11-17T00:31:00.735Z,18.34
2016-11-17T00:31:33.063Z,18.38
2016-11-17T00:32:05.427Z,18.34
2016-11-17T00:32:37.751Z,18.34
2016-11-17T00:33:10.061Z,18.34
2016-11-17T00:33:42.377Z,18.34
2016-11-17T00:34:14.696Z,18.36
2016-11-17T00:34:47.018Z,18.27
2016-11-17T00:35:19.325Z,18.41
2016-11-17T00:35:51.649Z,18.34
2016-11-17T00:36:23.996Z,18.38
2016-11-17T00:36:56.296Z,18.39
2016-11-17T00:37:28.619Z,18.34
2016-11-17T00:38:00.941Z,18.24
2016-11-17T00:38:33.265Z,18.31
2016-11-17T00:39:05.582Z,18.24
2016-11-17T00:39:37.899Z,18.29
2016-11-17T00:40:10.219Z,18.27
2016-11-17T00:40:42.532Z,18.31
2016-11-17T00:41:14.859Z,18.34
2016-11-17T00:41:47.178Z,18.44
2016-11-17T00:42:19.509Z,18.34
2016-11-17T00:42:51.850Z,18.32
2016-11-17T00:43:24.158Z,18.29
2016-11-17T00:43:56.479Z,18.35
2016-11-17T00:44:28.789Z,18.31
2016-11-17T00:45:01.100Z,18.34
2016-11-17T00:45:33.423Z,18.32
2016-11-17T00:46:05.755Z,18.31
2016-11-17T00:46:38.068Z,18.31
2016-11-17T00:47:10.378Z,18.34
2016-11-17T00:47:42.716Z,18.32
2016-11-17T00:48:15.046Z,18.32
2016-11-17T00:48:47.394Z,18.34
2016-11-17T00:49:19.702Z,18.35
2016-11-17T00:49:52.018Z,18.32
2016-11-17T00:50:24.333Z,18.34
2016-11-17T00:50:56.663Z,18.39
2016-11-17T00:51:28.995Z,18.32
2016-11-17T00:52:01.290Z,18.34
2016-11-17T00:52:33.609Z,18.35
2016-11-17T00:53:05.921Z,18.39
2016-11-17T00:53:38.234Z,18.38
2016-11-17T00:54:10.557Z,18.32
2016-11-17T00:54:42.876Z,18.29
2016-11-17T00:55:15.191Z,18.39
2016-11-17T00:55:47.525Z,18.39
2016-11-17T00:56:19.856Z,18.35
2016-11-17T00:56:52.166Z,18.32
2016-11-17T00:57:24.474Z,18.29
2016-11-17T00:57:56.795Z,18.34
2016-11-17T00:58:29.126Z,18.42
2016-11-17T00:59:01.455Z,18.47
2016-11-17T00:59:33.771Z,18.38
2016-11-17T01:00:06.064Z,18.35
2016-11-17T01:00:38.400Z,18.38
2016-11-17T01:01:10.739Z,18.38
2016-11-17T01:01:43.052Z,18.41
2016-11-17T01:02:15.381Z,18.31
2016-11-17T01:02:47.693Z,18.29
2016-11-17T01:03:19.995Z,18.42
2016-11-17T01:03:52.350Z,18.47
2016-11-17T01:04:24.664Z,18.39
2016-11-17T01:04:56.993Z,18.35
2016-11-17T01:05:29.327Z,18.42
2016-11-17T01:06:01.628Z,18.38
2016-11-17T01:06:33.983Z,18.39
2016-11-17T01:07:06.309Z,18.39
2016-11-17T01:07:38.626Z,18.39
2016-11-17T01:08:10.947Z,18.39
2016-11-17T01:08:43.258Z,18.35
2016-11-17T01:09:15.580Z,18.39
2016-11-17T01:09:47.916Z,18.29
2016-11-17T01:10:20.233Z,18.39
2016-11-17T01:10:52.592Z,18.38
2016-11-17T01:11:24.899Z,18.36
2016-11-17T01:11:57.233Z,18.39
2016-11-17T01:12:29.535Z,18.38
2016-11-17T01:13:01.865Z,18.41
2016-11-17T01:13:34.191Z,18.45
2016-11-17T01:14:06.513Z,18.34
2016-11-17T01:14:38.828Z,18.41
2016-11-17T01:15:11.159Z,18.34
2016-11-17T01:15:43.486Z,18.27
2016-11-17T01:16:15.810Z,18.38
2016-11-17T01:16:48.129Z,18.42
2016-11-17T01:17:20.466Z,18.42
2016-11-17T01:17:52.798Z,18.41
2016-11-17T01:18:25.102Z,18.38
2016-11-17T01:18:57.412Z,18.39
2016-11-17T01:19:29.713Z,18.35
2016-11-17T01:20:02.038Z,18.41
2016-11-17T01:20:34.354Z,18.34
2016-11-17T01:21:06.672Z,18.39
2016-11-17T01:21:38.990Z,18.38
2016-11-17T01:22:11.317Z,18.45
2016-11-17T01:22:43.616Z,18.42
2016-11-17T01:23:15.923Z,18.39
2016-11-17T01:23:48.231Z,18.39
2016-11-17T01:24:20.557Z,18.39
2016-11-17T01:24:52.917Z,18.39
2016-11-17T01:25:25.238Z,18.31
2016-11-17T01:25:58.295Z,18.39
2016-11-17T01:26:30.631Z,18.39
2016-11-17T01:27:02.981Z,18.41
2016-11-17T01:27:35.291Z,18.38
2016-11-17T01:28:07.600Z,18.34
2016-11-17T01:28:39.921Z,18.38
2016-11-17T01:29:12.224Z,18.41
2016-11-17T01:29:44.543Z,18.39
2016-11-17T01:30:16.848Z,18.39
2016-11-17T01:30:49.178Z,18.32
2016-11-17T01:31:21.498Z,18.35
2016-11-17T01:31:53.822Z,18.39
2016-11-17T01:32:26.138Z,18.35
2016-11-17T01:32:58.455Z,18.44
2016-11-17T01:33:30.786Z,18.38
2016-11-17T01:34:03.109Z,18.36
2016-11-17T01:34:35.417Z,18.36
2016-11-17T01:35:07.746Z,18.41
2016-11-17T01:35:40.059Z,18.42
2016-11-17T01:36:12.384Z,18.38
2016-11-17T01:36:44.720Z,18.5
2016-11-17T01:37:17.055Z,18.39
2016-11-17T01:37:49.386Z,18.27
2016-11-17T01:38:21.714Z,18.35
2016-11-17T01:38:54.030Z,18.42
2016-11-17T01:39:26.379Z,18.38
2016-11-17T01:39:58.700Z,18.39
2016-11-17T01:40:31.031Z,18.42
2016-11-17T01:41:03.360Z,18.32
2016-11-17T01:41:35.698Z,18.42
2016-11-17T01:42:08.006Z,18.45
2016-11-17T01:42:40.332Z,18.39
2016-11-17T01:43:12.643Z,18.38
2016-11-17T01:43:44.970Z,18.34
2016-11-17T01:44:17.323Z,18.35
2016-11-17T01:44:49.638Z,18.31
2016-11-17T01:45:21.960Z,18.34
2016-11-17T01:45:54.273Z,18.42
2016-11-17T01:46:26.593Z,18.38
2016-11-17T01:46:58.914Z,18.42
2016-11-17T01:47:31.220Z,18.34
2016-11-17T01:48:03.567Z,18.38
2016-11-17T01:48:35.871Z,18.32
2016-11-17T01:49:08.190Z,18.34
2016-11-17T01:49:40.519Z,18.39
2016-11-17T01:50:12.847Z,18.39
2016-11-17T01:50:45.195Z,18.32
2016-11-17T01:51:17.508Z,18.38
2016-11-17T01:51:49.826Z,18.39
2016-11-17T01:52:22.129Z,18.35
2016-11-17T01:52:54.447Z,18.41
2016-11-17T01:53:26.803Z,18.29
2016-11-17T01:53:59.119Z,18.42
2016-11-17T01:54:31.449Z,18.36
2016-11-17T01:55:03.757Z,18.34
2016-11-17T01:55:36.086Z,18.39
2016-11-17T01:56:08.399Z,18.27
2016-11-17T01:56:40.764Z,18.36
2016-11-17T01:57:13.092Z,18.34
2016-11-17T01:57:45.420Z,18.39
2016-11-17T01:58:17.733Z,18.39
2016-11-17T01:58:50.046Z,18.35
2016-11-17T01:59:22.343Z,18.39
2016-11-17T01:59:54.651Z,18.32
2016-11-17T02:00:26.958Z,18.35
2016-11-17T02:00:59.265Z,18.42
2016-11-17T02:01:31.590Z,18.31
2016-11-17T02:02:03.914Z,18.29
2016-11-17T02:02:36.239Z,18.32
2016-11-17T02:03:08.554Z,18.31
2016-11-17T02:03:40.871Z,18.36
2016-11-17T02:04:13.184Z,18.41
2016-11-17T02:04:45.485Z,18.29
2016-11-17T02:05:17.807Z,18.34
2016-11-17T02:05:50.120Z,18.34
2016-11-17T02:06:22.454Z,18.38
2016-11-17T02:06:54.802Z,18.24
2016-11-17T02:07:27.127Z,18.34
2016-11-17T02:07:59.440Z,18.35
2016-11-17T02:08:31.755Z,18.29
2016-11-17T02:09:04.091Z,18.29
2016-11-17T02:09:36.423Z,18.32
2016-11-17T02:10:08.737Z,18.31
2016-11-17T02:10:41.060Z,18.34
2016-11-17T02:11:13.365Z,18.36
2016-11-17T02:11:45.684Z,18.26
2016-11-17T02:12:18.001Z,18.31
2016-11-17T02:12:50.316Z,18.31
2016-11-17T02:13:22.636Z,18.31
2016-11-17T02:13:54.967Z,18.32
2016-11-17T02:14:27.293Z,18.29
2016-11-17T02:14:59.608Z,18.41
2016-11-17T02:15:31.918Z,18.32
2016-11-17T02:16:04.237Z,18.42
2016-11-17T02:16:36.538Z,18.38
2016-11-17T02:17:08.849Z,18.32
2016-11-17T02:17:41.163Z,18.35
2016-11-17T02:18:13.520Z,18.38
2016-11-17T02:18:45.833Z,18.32
2016-11-17T02:19:18.139Z,18.34
2016-11-17T02:19:50.464Z,18.34
2016-11-17T02:20:22.775Z,18.38
2016-11-17T02:20:55.095Z,18.29
2016-11-17T02:21:27.414Z,18.36
2016-11-17T02:21:59.722Z,18.41
2016-11-17T02:22:32.036Z,18.24
2016-11-17T02:23:04.363Z,18.34
2016-11-17T02:23:36.681Z,18.39
2016-11-17T02:24:09.011Z,18.38
2016-11-17T02:24:41.350Z,18.27
2016-11-17T02:25:13.662Z,18.38
2016-11-17T02:25:45.987Z,18.41
2016-11-17T02:26:18.301Z,18.32
2016-11-17T02:26:50.618Z,18.29
2016-11-17T02:27:22.931Z,18.32
2016-11-17T02:27:55.254Z,18.32
2016-11-17T02:28:27.573Z,18.41
2016-11-17T02:28:59.879Z,18.26
2016-11-17T02:29:32.195Z,18.39
2016-11-17T02:30:04.521Z,18.38
2016-11-17T02:30:36.823Z,18.36
2016-11-17T02:31:09.138Z,18.34
2016-11-17T02:31:41.442Z,18.41
2016-11-17T02:32:13.772Z,18.31
2016-11-17T02:32:46.073Z,18.35
2016-11-17T02:33:18.379Z,18.21
2016-11-17T02:33:50.704Z,18.27
2016-11-17T02:34:23.027Z,18.36
2016-11-17T02:34:55.347Z,18.34
2016-11-17T02:35:27.671Z,18.32
2016-11-17T02:35:59.997Z,18.36
2016-11-17T02:36:32.312Z,18.36
2016-11-17T02:37:04.632Z,18.31
2016-11-17T02:37:36.966Z,18.32
2016-11-17T02:38:09.287Z,18.32
2016-11-17T02:38:41.607Z,18.21
2016-11-17T02:39:13.905Z,18.29
2016-11-17T02:39:46.216Z,18.38
2016-11-17T02:40:18.554Z,18.35
2016-11-17T02:40:50.891Z,18.36
2016-11-17T02:41:23.215Z,18.36
2016-11-17T02:41:55.545Z,18.41
2016-11-17T02:42:27.854Z,18.32
2016-11-17T02:43:00.174Z,18.31
2016-11-17T02:43:32.491Z,18.29
2016-11-17T02:44:04.803Z,18.42
2016-11-17T02:44:37.127Z,18.23
2016-11-17T02:45:09.446Z,18.35
2016-11-17T02:45:41.776Z,18.24
2016-11-17T02:46:14.078Z,18.34
2016-11-17T02:46:46.410Z,18.24
2016-11-17T02:47:18.732Z,18.36
2016-11-17T02:47:51.062Z,18.39
2016-11-17T02:48:23.355Z,18.35
2016-11-17T02:48:55.670Z,18.34
2016-11-17T02:49:28.011Z,18.38
2016-11-17T02:50:00.385Z,18.41
2016-11-17T02:50:32.694Z,18.35
2016-11-17T02:51:05.009Z,18.27
2016-11-17T02:51:37.322Z,18.29
2016-11-17T02:52:09.641Z,18.39
2016-11-17T02:52:41.955Z,18.35
2016-11-17T02:53:14.270Z,18.2
2016-11-17T02:53:46.624Z,18.35
2016-11-17T02:54:18.935Z,18.32
2016-11-17T02:54:51.248Z,18.36
2016-11-17T02:55:23.556Z,18.21
2016-11-17T02:55:55.879Z,18.36
2016-11-17T02:56:28.188Z,18.36
2016-11-17T02:57:00.498Z,18.35
2016-11-17T02:57:32.813Z,18.32
2016-11-17T02:58:05.130Z,18.32
2016-11-17T02:58:37.497Z,18.41
2016-11-17T02:59:09.814Z,18.32
2016-11-17T02:59:42.132Z,18.32
2016-11-17T03:00:14.447Z,18.32
2016-11-17T03:00:46.755Z,18.36
2016-11-17T03:01:19.078Z,18.29
2016-11-17T03:01:51.410Z,18.34
2016-11-17T03:02:23.727Z,18.29
2016-11-17T03:02:56.076Z,18.31
2016-11-17T03:03:28.389Z,18.34
2016-11-17T03:04:00.711Z,18.31
2016-11-17T03:04:33.048Z,18.34
2016-11-17T03:05:05.371Z,18.32
2016-11-17T03:05:37.680Z,18.27
2016-11-17T03:06:10.006Z,18.34
2016-11-17T03:06:42.339Z,18.31
2016-11-17T03:07:14.672Z,18.31
2016-11-17T03:07:46.984Z,18.23
2016-11-17T03:08:19.309Z,18.34
2016-11-17T03:08:51.665Z,18.27
2016-11-17T03:09:23.972Z,18.32
2016-11-17T03:09:56.294Z,18.31
2016-11-17T03:10:28.597Z,18.29
2016-11-17T03:11:00.908Z,18.29
2016-11-17T03:11:33.226Z,18.31
2016-11-17T03:12:05.542Z,18.39
2016-11-17T03:12:37.862Z,18.32
2016-11-17T03:13:10.176Z,18.34
2016-11-17T03:13:42.505Z,18.29
2016-11-17T03:14:14.813Z,18.34
2016-11-17T03:14:47.139Z,18.36
2016-11-17T03:15:19.451Z,18.31
2016-11-17T03:15:51.807Z,18.36
2016-11-17T03:16:24.123Z,18.29
2016-11-17T03:16:56.437Z,18.27
2016-11-17T03:17:28.756Z,18.27
2016-11-17T03:18:01.079Z,18.31
2016-11-17T03:18:33.405Z,18.31
2016-11-17T03:19:05.747Z,18.34
2016-11-17T03:19:38.066Z,18.29
2016-11-17T03:20:10.392Z,18.27
2016-11-17T03:20:42.710Z,18.34
2016-11-17T03:21:15.008Z,18.34
2016-11-17T03:21:47.324Z,18.31
2016-11-17T03:22:19.634Z,18.35
2016-11-17T03:22:51.967Z,18.29
2016-11-17T03:23:24.305Z,18.27
2016-11-17T03:23:56.626Z,18.36
2016-11-17T03:24:28.956Z,18.38
2016-11-17T03:25:01.275Z,18.31
2016-11-17T03:25:33.592Z,18.23
2016-11-17T03:26:05.906Z,18.34
2016-11-17T03:26:38.227Z,18.26
2016-11-17T03:27:10.546Z,18.31
2016-11-17T03:27:42.862Z,18.31
2016-11-17T03:28:15.180Z,18.32
2016-11-17T03:28:47.492Z,18.31
2016-11-17T03:29:19.812Z,18.29
2016-11-17T03:29:52.131Z,18.32
2016-11-17T03:30:24.449Z,18.2
2016-11-17T03:30:56.775Z,18.27
2016-11-17T03:31:29.139Z,18.27
2016-11-17T03:32:01.468Z,18.34
2016-11-17T03:32:33.782Z,18.27
2016-11-17T03:33:06.092Z,18.31
2016-11-17T03:33:38.424Z,18.17
2016-11-17T03:34:10.748Z,18.16
2016-11-17T03:34:43.084Z,18.2
2016-11-17T03:35:15.400Z,18.24
2016-11-17T03:35:47.709Z,18.26
2016-11-17T03:36:20.023Z,18.27
2016-11-17T03:36:52.338Z,18.23
2016-11-17T03:37:24.646Z,18.16
2016-11-17T03:37:56.976Z,18.21
2016-11-17T03:38:29.303Z,18.21
2016-11-17T03:39:01.624Z,18.2
2016-11-17T03:39:33.938Z,18.26
2016-11-17T03:40:06.240Z,18.26
2016-11-17T03:40:38.558Z,18.16
2016-11-17T03:41:10.914Z,18.27
2016-11-17T03:41:43.235Z,18.32
2016-11-17T03:42:15.555Z,18.31
2016-11-17T03:42:47.900Z,18.27
2016-11-17T03:43:20.217Z,18.21
2016-11-17T03:43:52.542Z,18.29
2016-11-17T03:44:24.868Z,18.23
2016-11-17T03:44:57.174Z,18.16
2016-11-17T03:45:29.490Z,18.21
2016-11-17T03:46:01.787Z,18.32
2016-11-17T03:46:34.112Z,18.29
2016-11-17T03:47:06.438Z,18.21
2016-11-17T03:47:38.771Z,18.31
2016-11-17T03:48:11.094Z,18.19
2016-11-17T03:48:43.409Z,18.31
2016-11-17T03:49:15.731Z,18.2
2016-11-17T03:49:48.091Z,18.23
2016-11-17T03:50:20.410Z,18.26
2016-11-17T03:50:52.709Z,18.32
2016-11-17T03:51:25.038Z,18.17
2016-11-17T03:51:57.389Z,18.29
2016-11-17T03:52:29.708Z,18.21
2016-11-17T03:53:02.030Z,18.17
2016-11-17T03:53:34.362Z,18.32
2016-11-17T03:54:06.681Z,18.32
2016-11-17T03:54:39.017Z,18.26
2016-11-17T03:55:11.347Z,18.21
2016-11-17T03:55:43.665Z,18.16
2016-11-17T03:56:15.976Z,18.19
2016-11-17T03:56:48.297Z,18.2
2016-11-17T03:57:20.613Z,18.17
2016-11-17T03:57:52.928Z,18.19
2016-11-17T03:58:25.249Z,18.31
2016-11-17T03:58:57.569Z,18.29
2016-11-17T03:59:29.897Z,18.27
2016-11-17T04:00:02.214Z,18.16
2016-11-17T04:00:34.539Z,18.19
2016-11-17T04:01:06.860Z,18.24
2016-11-17T04:01:39.195Z,18.2
2016-11-17T04:02:11.503Z,18.19
2016-11-17T04:02:43.831Z,18.19
2016-11-17T04:03:16.137Z,18.17
2016-11-17T04:03:48.445Z,18.16
2016-11-17T04:04:20.758Z,18.21
2016-11-17T04:04:53.101Z,18.17
2016-11-17T04:05:25.420Z,18.23
2016-11-17T04:05:57.743Z,18.21
2016-11-17T04:06:30.062Z,18.14
2016-11-17T04:07:02.392Z,18.16
2016-11-17T04:07:34.715Z,18.2
2016-11-17T04:08:07.030Z,18.2
2016-11-17T04:08:39.361Z,18.17
2016-11-17T04:09:11.666Z,18.17
2016-11-17T04:09:43.985Z,18.17
2016-11-17T04:10:16.308Z,18.19
2016-11-17T04:10:48.638Z,18.19
2016-11-17T04:11:20.977Z,18.16
2016-11-17T04:11:53.290Z,18.17
2016-11-17T04:12:25.588Z,18.2
2016-11-17T04:12:57.900Z,18.24
2016-11-17T04:13:30.227Z,18.17
2016-11-17T04:14:02.551Z,18.21
2016-11-17T04:14:34.874Z,18.19
2016-11-17T04:15:07.167Z,18.2
2016-11-17T04:15:39.481Z,18.23
2016-11-17T04:16:11.800Z,18.2
2016-11-17T04:16:44.149Z,18.19
2016-11-17T04:17:16.450Z,18.19
2016-11-17T04:17:48.763Z,18.2
2016-11-17T04:18:21.080Z,18.16
2016-11-17T04:18:53.420Z,18.2
2016-11-17T04:19:25.723Z,18.21
2016-11-17T04:19:58.043Z,18.19
2016-11-17T04:20:30.361Z,18.21
2016-11-17T04:21:02.687Z,18.17
2016-11-17T04:21:35.003Z,18.21
2016-11-17T04:22:07.327Z,18.13
2016-11-17T04:22:39.646Z,18.19
2016-11-17T04:23:11.964Z,18.2
2016-11-17T04:23:44.286Z,18.19
2016-11-17T04:24:16.607Z,18.14
2016-11-17T04:24:48.925Z,18.14
2016-11-17T04:25:21.237Z,18.21
2016-11-17T04:25:53.563Z,18.23
2016-11-17T04:26:25.891Z,18.19
2016-11-17T04:26:58.208Z,18.14
2016-11-17T04:27:30.530Z,18.26
2016-11-17T04:28:02.851Z,18.19
2016-11-17T04:28:35.161Z,18.17
2016-11-17T04:29:07.490Z,18.23
2016-11-17T04:29:39.815Z,18.14
2016-11-17T04:30:12.135Z,18.23
2016-11-17T04:30:44.452Z,18.19
2016-11-17T04:31:16.762Z,18.13
2016-11-17T04:31:49.084Z,18.21
2016-11-17T04:32:21.393Z,18.21
2016-11-17T04:32:53.754Z,18.2
2016-11-17T04:33:26.071Z,18.14
2016-11-17T04:33:58.400Z,18.2
2016-11-17T04:34:30.714Z,18.19
2016-11-17T04:35:03.039Z,18.16
2016-11-17T04:35:35.374Z,18.19
2016-11-17T04:36:07.689Z,18.23
2016-11-17T04:36:40.017Z,18.2
2016-11-17T04:37:12.332Z,18.21
2016-11-17T04:37:44.663Z,18.19
2016-11-17T04:38:16.980Z,18.16
2016-11-17T04:38:49.295Z,18.23
2016-11-17T04:39:21.632Z,18.14
2016-11-17T04:39:53.950Z,18.16
2016-11-17T04:40:26.267Z,18.2
2016-11-17T04:40:58.567Z,18.19
2016-11-17T04:41:30.881Z,18.24
2016-11-17T04:42:03.198Z,18.17
2016-11-17T04:42:35.521Z,18.21
2016-11-17T04:43:07.836Z,18.27
2016-11-17T04:43:40.156Z,18.19
2016-11-17T04:44:12.477Z,18.24
2016-11-17T04:44:44.779Z,18.21
2016-11-17T04:45:17.094Z,18.2
2016-11-17T04:45:49.390Z,18.19
2016-11-17T04:46:21.709Z,18.26
2016-11-17T04:46:54.043Z,18.23
2016-11-17T04:47:26.354Z,18.19
2016-11-17T04:47:58.670Z,18.17
2016-11-17T04:48:30.984Z,18.19
2016-11-17T04:49:03.305Z,18.27
2016-11-17T04:49:35.636Z,18.34
2016-11-17T04:50:07.944Z,18.17
2016-11-17T04:50:40.271Z,18.19
2016-11-17T04:51:12.594Z,18.29
2016-11-17T04:51:44.908Z,18.2
2016-11-17T04:52:17.221Z,18.23
2016-11-17T04:52:49.551Z,18.24
2016-11-17T04:53:21.859Z,18.29
2016-11-17T04:53:54.195Z,18.19
2016-11-17T04:54:26.508Z,18.19
2016-11-17T04:54:58.830Z,18.27
2016-11-17T04:55:31.151Z,18.23
2016-11-17T04:56:03.480Z,18.26
2016-11-17T04:56:35.801Z,18.24
2016-11-17T04:57:08.133Z,18.23
2016-11-17T04:57:40.442Z,18.21
2016-11-17T04:58:12.767Z,18.31
2016-11-17T04:58:45.097Z,18.26
2016-11-17T04:59:17.422Z,18.24
2016-11-17T04:59:49.745Z,18.26
2016-11-17T05:00:22.087Z,18.32
2016-11-17T05:00:54.406Z,18.21
2016-11-17T05:01:26.713Z,18.26
2016-11-17T05:01:59.044Z,18.19
2016-11-17T05:02:31.352Z,18.29
2016-11-17T05:03:03.662Z,18.2
2016-11-17T05:03:36.026Z,18.31
2016-11-17T05:04:08.335Z,18.31
2016-11-17T05:04:40.666Z,18.29
2016-11-17T05:05:12.985Z,18.32
2016-11-17T05:05:45.311Z,18.32
2016-11-17T05:06:17.628Z,18.29
2016-11-17T05:06:49.948Z,18.16
2016-11-17T05:07:22.271Z,18.26
2016-11-17T05:07:54.593Z,18.34
2016-11-17T05:08:26.894Z,18.31
2016-11-17T05:08:59.195Z,18.32
2016-11-17T05:09:31.529Z,18.29
2016-11-17T05:10:03.900Z,18.2
2016-11-17T05:10:36.262Z,18.27
2016-11-17T05:11:08.614Z,18.29
2016-11-17T05:11:40.935Z,18.31
2016-11-17T05:12:13.250Z,18.36
2016-11-17T05:12:45.562Z,18.32
2016-11-17T05:13:17.879Z,18.27
2016-11-17T05:13:50.193Z,18.32
2016-11-17T05:14:22.518Z,18.31
2016-11-17T05:14:54.836Z,18.31
2016-11-17T05:15:27.144Z,18.31
2016-11-17T05:15:59.508Z,18.29
2016-11-17T05:16:31.830Z,18.34
2016-11-17T05:17:04.144Z,18.35
2016-11-17T05:17:36.469Z,18.29
2016-11-17T05:18:08.767Z,18.34
2016-11-17T05:18:41.082Z,18.29
2016-11-17T05:19:13.399Z,18.31
2016-11-17T05:19:45.746Z,18.31
2016-11-17T05:20:18.053Z,18.31
2016-11-17T05:20:50.396Z,18.32
2016-11-17T05:21:22.741Z,18.32
2016-11-17T05:21:55.048Z,18.34
2016-11-17T05:22:27.384Z,18.32
2016-11-17T05:22:59.709Z,18.36
2016-11-17T05:23:32.021Z,18.32
2016-11-17T05:24:04.332Z,18.31
2016-11-17T05:24:36.636Z,18.26
2016-11-17T05:25:08.949Z,18.32
2016-11-17T05:25:41.285Z,18.31
2016-11-17T05:26:13.601Z,18.27
2016-11-17T05:26:45.929Z,18.34
2016-11-17T05:27:18.287Z,18.35
2016-11-17T05:27:50.632Z,18.32
2016-11-17T05:28:22.948Z,18.39
2016-11-17T05:28:56.075Z,18.26
2016-11-17T05:29:28.381Z,18.32
2016-11-17T05:30:00.699Z,18.34
2016-11-17T05:30:33.013Z,18.32
2016-11-17T05:31:05.352Z,18.38
2016-11-17T05:31:37.662Z,18.29
2016-11-17T05:32:10.012Z,18.36
2016-11-17T05:32:42.311Z,18.36
2016-11-17T05:33:14.637Z,18.34
2016-11-17T05:33:46.953Z,18.38
2016-11-17T05:34:19.276Z,18.38
2016-11-17T05:34:51.598Z,18.41
2016-11-17T05:35:23.921Z,18.31
2016-11-17T05:35:56.238Z,18.34
2016-11-17T05:36:28.556Z,18.29
2016-11-17T05:37:00.865Z,18.32
2016-11-17T05:37:33.205Z,18.27
2016-11-17T05:38:05.504Z,18.29
2016-11-17T05:38:37.823Z,18.29
2016-11-17T05:39:10.143Z,18.34
2016-11-17T05:39:42.462Z,18.36
2016-11-17T05:40:14.820Z,18.32
2016-11-17T05:40:47.137Z,18.24
2016-11-17T05:41:19.487Z,18.34
2016-11-17T05:41:51.798Z,18.29
2016-11-17T05:42:24.121Z,18.35
2016-11-17T05:42:56.441Z,18.38
2016-11-17T05:43:28.751Z,18.34
2016-11-17T05:44:01.084Z,18.34
2016-11-17T05:44:33.406Z,18.29
2016-11-17T05:45:05.725Z,18.35
2016-11-17T05:45:38.051Z,18.34
2016-11-17T05:46:10.370Z,18.34
2016-11-17T05:46:42.691Z,18.32
2016-11-17T05:47:15.010Z,18.34
2016-11-17T05:47:47.326Z,18.32
2016-11-17T05:48:19.640Z,18.36
2016-11-17T05:48:51.961Z,18.38
2016-11-17T05:49:24.286Z,18.35
2016-11-17T05:49:56.648Z,18.29
2016-11-17T05:50:28.960Z,18.31
2016-11-17T05:51:01.336Z,18.32
2016-11-17T05:51:33.646Z,18.42
2016-11-17T05:52:05.955Z,18.35
2016-11-17T05:52:38.273Z,18.27
2016-11-17T05:53:10.587Z,18.24
2016-11-17T05:53:42.900Z,18.29
2016-11-17T05:54:15.211Z,18.38
2016-11-17T05:54:47.529Z,18.32
2016-11-17T05:55:19.864Z,18.39
2016-11-17T05:55:52.186Z,18.35
2016-11-17T05:56:24.507Z,18.39
2016-11-17T05:56:56.835Z,18.29
2016-11-17T05:57:29.189Z,18.29
2016-11-17T05:58:01.502Z,18.39
2016-11-17T05:58:33.833Z,18.35
2016-11-17T05:59:06.156Z,18.36
2016-11-17T05:59:38.477Z,18.31
2016-11-17T06:00:11.474Z,18.34
2016-11-17T06:00:43.783Z,18.34
2016-11-17T06:01:16.100Z,18.41
2016-11-17T06:01:48.421Z,18.35
2016-11-17T06:02:20.739Z,18.44
2016-11-17T06:02:53.054Z,18.35
2016-11-17T06:03:25.386Z,18.41
2016-11-17T06:03:57.713Z,18.45
2016-11-17T06:04:30.025Z,18.35
2016-11-17T06:05:02.388Z,18.42
2016-11-17T06:05:34.735Z,18.27
2016-11-17T06:06:07.057Z,18.38
2016-11-17T06:06:39.370Z,18.44
2016-11-17T06:07:11.686Z,18.32
2016-11-17T06:07:44.010Z,18.35
2016-11-17T06:08:16.318Z,18.36
2016-11-17T06:08:48.646Z,18.36
2016-11-17T06:09:20.974Z,18.35
2016-11-17T06:09:53.288Z,18.34
2016-11-17T06:10:25.608Z,18.34
2016-11-17T06:10:57.933Z,18.39
2016-11-17T06:11:30.225Z,18.32
2016-11-17T06:12:02.541Z,18.39
2016-11-17T06:12:34.852Z,18.42
2016-11-17T06:13:07.200Z,18.39
2016-11-17T06:13:39.521Z,18.34
2016-11-17T06:14:11.827Z,18.38
2016-11-17T06:14:44.286Z,18.42
2016-11-17T06:15:16.592Z,18.32
2016-11-17T06:15:48.917Z,18.38
2016-11-17T06:16:21.269Z,18.47
2016-11-17T06:16:53.601Z,18.38
2016-11-17T06:17:25.917Z,18.36
2016-11-17T06:17:58.225Z,18.42
2016-11-17T06:18:30.565Z,18.41
2016-11-17T06:19:02.884Z,18.41
2016-11-17T06:19:35.206Z,18.45
2016-11-17T06:20:07.514Z,18.32
2016-11-17T06:20:39.834Z,18.35
2016-11-17T06:21:12.143Z,18.36
2016-11-17T06:21:44.466Z,18.35
2016-11-17T06:22:16.786Z,18.36
2016-11-17T06:22:49.166Z,18.38
2016-11-17T06:23:21.475Z,18.34
2016-11-17T06:23:53.799Z,18.38
2016-11-17T06:24:26.108Z,18.36
2016-11-17T06:24:58.430Z,18.39
2016-11-17T06:25:30.737Z,18.38
2016-11-17T06:26:03.057Z,18.38
2016-11-17T06:26:35.369Z,18.39
2016-11-17T06:27:07.705Z,18.36
2016-11-17T06:27:40.011Z,18.38
2016-11-17T06:28:12.335Z,18.38
2016-11-17T06:28:44.642Z,18.39
2016-11-17T06:29:16.951Z,18.36
2016-11-17T06:29:49.251Z,18.45
2016-11-17T06:30:21.576Z,18.35
2016-11-17T06:30:53.887Z,18.41
2016-11-17T06:31:26.215Z,18.39
2016-11-17T06:31:58.580Z,18.34
2016-11-17T06:32:30.919Z,18.42
2016-11-17T06:33:03.232Z,18.35
2016-11-17T06:33:35.581Z,18.29
2016-11-17T06:34:07.890Z,18.49
2016-11-17T06:34:40.215Z,18.45
2016-11-17T06:35:12.658Z,18.39
2016-11-17T06:35:45.981Z,18.32
2016-11-17T06:36:18.328Z,18.39
2016-11-17T06:36:50.671Z,18.36
2016-11-17T06:37:22.993Z,18.42
2016-11-17T06:37:55.330Z,18.34
2016-11-17T06:38:27.677Z,18.31
2016-11-17T06:39:00.624Z,18.39
2016-11-17T06:39:33.218Z,18.38
2016-11-17T06:40:05.542Z,18.42
2016-11-17T06:40:37.855Z,18.34
2016-11-17T06:41:10.174Z,18.39
2016-11-17T06:41:44.060Z,18.38
2016-11-17T06:42:16.381Z,18.39
2016-11-17T06:42:48.713Z,18.29
2016-11-17T06:43:21.053Z,18.38
2016-11-17T06:43:53.411Z,18.41
2016-11-17T06:44:25.741Z,18.42
2016-11-17T06:44:58.057Z,18.42
2016-11-17T06:45:30.368Z,18.45
2016-11-17T06:46:02.900Z,18.39
2016-11-17T06:46:36.548Z,18.39
2016-11-17T06:47:11.584Z,18.42
2016-11-17T06:47:50.809Z,18.34
2016-11-17T06:48:25.862Z,18.38
2016-11-17T06:48:59.513Z,18.31
2016-11-17T06:49:33.215Z,18.39
2016-11-17T06:50:06.037Z,18.29
2016-11-17T06:50:40.039Z,18.35
2016-11-17T06:51:14.141Z,18.29
2016-11-17T06:51:47.635Z,18.38
2016-11-17T06:52:25.604Z,18.35
2016-11-17T06:52:59.041Z,18.49
2016-11-17T06:53:32.418Z,18.38
2016-11-17T06:54:06.734Z,18.45
2016-11-17T06:54:40.197Z,18.39
2016-11-17T06:55:14.434Z,18.38
2016-11-17T06:55:48.105Z,18.42
2016-11-17T06:56:21.342Z,18.36
2016-11-17T06:56:53.667Z,18.42
2016-11-17T06:57:26.049Z,18.39